createdAt,value
2018-04-24T00:00:31.333Z,99483.84
2018-04-24T00:02:59.656Z,99493.61
2018-04-24T00:05:28.775Z,99488.34
2018-04-24T00:07:56.359Z,99488.83
2018-04-24T00:10:23.919Z,99486.78
2018-04-24T00:12:52.447Z,99487.41
2018-04-24T00:15:20.011Z,99486.67
2018-04-24T00:17:48.080Z,99484.84
2018-04-24T00:20:16.284Z,99480.62
2018-04-24T00:22:43.860Z,99481.44
2018-04-24T00:25:11.439Z,99479.80
2018-04-24T00:27:39.880Z,99477.95
2018-04-24T00:30:08.343Z,99473.72
2018-04-24T00:32:35.886Z,99470.83
2018-04-24T00:35:04.173Z,99479.14
2018-04-24T00:37:32.288Z,99477.20
2018-04-24T00:39:59.985Z,99477.62
2018-04-24T00:42:27.560Z,99475.16
2018-04-24T00:44:55.171Z,99475.68
2018-04-24T00:47:23.742Z,99474.05
2018-04-24T00:49:51.971Z,99470.14
2018-04-24T00:52:19.547Z,99476.53
2018-04-24T00:54:47.196Z,99471.27
2018-04-24T00:57:14.807Z,99475.08
2018-04-24T00:59:42.367Z,99471.55
2018-04-24T01:02:10.807Z,99475.96
2018-04-24T01:04:39.335Z,99469.55
2018-04-24T01:07:06.924Z,99472.11
2018-04-24T01:09:34.999Z,99474.63
2018-04-24T01:12:02.575Z,99477.97
2018-04-24T01:14:30.447Z,99473.29
2018-04-24T01:16:58.312Z,99472.58
2018-04-24T01:19:26.579Z,99469.30
2018-04-24T01:21:54.165Z,99468.30
2018-04-24T01:24:21.742Z,99476.42
2018-04-24T01:26:49.380Z,99469.52
2018-04-24T01:29:16.946Z,99458.94
2018-04-24T01:31:45.081Z,99472.11
2018-04-24T01:34:13.088Z,99463.69
2018-04-24T01:36:41.894Z,99462.70
2018-04-24T01:39:09.471Z,99464.48
2018-04-24T01:41:37.032Z,99469.41
2018-04-24T01:44:04.640Z,99472.80
2018-04-24T01:46:32.225Z,99472.17
2018-04-24T01:49:00.217Z,99472.39
2018-04-24T01:51:29.143Z,99478.03
2018-04-24T01:53:58.392Z,99479.27
2018-04-24T01:56:26.036Z,99482.91
2018-04-24T01:58:53.680Z,99479.42
2018-04-24T02:01:21.976Z,99481.25
2018-04-24T02:03:49.550Z,99478.30
2018-04-24T02:06:17.839Z,99483.97
2018-04-24T02:08:46.063Z,99472.98
2018-04-24T02:11:13.631Z,99474.61
2018-04-24T02:13:42.667Z,99483.08
2018-04-24T02:16:10.360Z,99475.09
2018-04-24T02:18:38.473Z,99480.59
2018-04-24T02:21:06.036Z,99481.73
2018-04-24T02:23:33.618Z,99480.31
2018-04-24T02:26:01.193Z,99473.44
2018-04-24T02:28:29.308Z,99478.88
2018-04-24T02:30:57.872Z,99469.43
2018-04-24T02:33:26.326Z,99472.08
2018-04-24T02:35:54.513Z,99474.34
2018-04-24T02:38:22.116Z,99462.73
2018-04-24T02:40:49.715Z,99466.03
2018-04-24T02:43:17.331Z,99476.30
2018-04-24T02:45:44.901Z,99472.41
2018-04-24T02:48:12.986Z,99474.06
2018-04-24T02:50:40.675Z,99468.66
2018-04-24T02:53:08.847Z,99470.78
2018-04-24T02:55:36.412Z,99470.00
2018-04-24T02:58:04.008Z,99470.41
2018-04-24T03:00:31.605Z,99473.30
2018-04-24T03:02:59.851Z,99476.80
2018-04-24T03:05:28.198Z,99467.37
2018-04-24T03:07:56.548Z,99478.17
2018-04-24T03:10:24.165Z,99477.70
2018-04-24T03:12:52.547Z,99478.63
2018-04-24T03:15:20.115Z,99478.73
2018-04-24T03:17:47.680Z,99473.61
2018-04-24T03:20:16.443Z,99469.11
2018-04-24T03:22:44.012Z,99472.70
2018-04-24T03:25:11.586Z,99471.99
2018-04-24T03:27:39.235Z,99475.70
2018-04-24T03:30:07.628Z,99482.37
2018-04-24T03:32:35.188Z,99469.75
2018-04-24T03:35:03.400Z,99474.16
2018-04-24T03:37:31.471Z,99469.86
2018-04-24T03:39:59.124Z,99477.15
2018-04-24T03:42:26.766Z,99475.00
2018-04-24T03:44:54.575Z,99473.39
2018-04-24T03:47:22.811Z,99477.91
2018-04-24T03:49:50.395Z,99477.91
2018-04-24T03:52:18.852Z,99476.27
2018-04-24T03:54:46.412Z,99474.94
2018-04-24T03:57:14.007Z,99471.65
2018-04-24T03:59:41.642Z,99472.98
2018-04-24T04:02:09.864Z,99476.17
2018-04-24T04:04:38.278Z,99470.58
2018-04-24T04:07:05.983Z,99467.40
2018-04-24T04:09:34.088Z,99480.11
2018-04-24T04:12:01.648Z,99473.73
2018-04-24T04:14:29.823Z,99473.33
2018-04-24T04:16:57.537Z,99475.80
2018-04-24T04:19:38.171Z,99475.20
2018-04-24T04:22:17.455Z,99479.39
2018-04-24T04:24:48.715Z,99482.37
2018-04-24T04:27:16.778Z,99471.48
2018-04-24T04:29:45.679Z,99478.05
2018-04-24T04:32:13.244Z,99479.06
2018-04-24T04:34:41.410Z,99479.25
2018-04-24T04:37:09.535Z,99474.80
2018-04-24T04:39:37.787Z,99476.95
2018-04-24T04:42:05.338Z,99482.27
2018-04-24T04:44:32.947Z,99476.91
2018-04-24T04:47:00.528Z,99475.87
2018-04-24T04:49:28.887Z,99481.33
2018-04-24T04:51:56.477Z,99484.19
2018-04-24T04:54:24.056Z,99489.83
2018-04-24T04:56:51.770Z,99483.99
2018-04-24T04:59:19.332Z,99485.52
2018-04-24T05:01:47.855Z,99485.47
2018-04-24T05:04:15.420Z,99488.13
2018-04-24T05:06:43.835Z,99489.64
2018-04-24T05:09:12.814Z,99484.44
2018-04-24T05:11:40.400Z,99487.19
2018-04-24T05:14:08.830Z,99488.92
2018-04-24T05:16:36.390Z,99483.66
2018-04-24T05:19:03.949Z,99488.98
2018-04-24T05:21:31.560Z,99481.29
2018-04-24T05:23:59.887Z,99481.80
2018-04-24T05:26:27.665Z,99484.19
2018-04-24T05:28:55.403Z,99481.92
2018-04-24T05:31:23.543Z,99477.35
2018-04-24T05:33:52.012Z,99487.09
2018-04-24T05:36:20.125Z,99486.59
2018-04-24T05:38:47.698Z,99482.09
2018-04-24T05:41:15.259Z,99481.30
2018-04-24T05:43:43.114Z,99481.86
2018-04-24T05:46:11.101Z,99473.07
2018-04-24T05:48:39.283Z,99468.08
2018-04-24T05:51:06.845Z,99474.52
2018-04-24T05:53:34.412Z,99474.22
2018-04-24T05:56:01.988Z,99477.56
2018-04-24T05:58:29.557Z,99482.52
2018-04-24T06:00:58.103Z,99471.70
2018-04-24T06:03:25.669Z,99482.25
2018-04-24T06:05:53.830Z,99481.25
2018-04-24T06:08:22.465Z,99473.31
2018-04-24T06:10:50.032Z,99474.20
2018-04-24T06:13:18.451Z,99468.94
2018-04-24T06:15:46.233Z,99470.17
2018-04-24T06:18:14.927Z,99469.64
2018-04-24T06:20:42.516Z,99471.00
2018-04-24T06:23:10.563Z,99477.28
2018-04-24T06:25:38.292Z,99480.00
2018-04-24T06:28:05.855Z,99483.69
2018-04-24T06:30:33.952Z,99472.56
2018-04-24T06:33:01.580Z,99472.10
2018-04-24T06:35:29.874Z,99465.33
2018-04-24T06:37:57.608Z,99467.65
2018-04-24T06:40:25.186Z,99465.94
2018-04-24T06:42:52.778Z,99466.52
2018-04-24T06:45:20.338Z,99453.05
2018-04-24T06:47:48.759Z,99462.63
2018-04-24T06:50:16.329Z,99460.83
2018-04-24T06:52:43.992Z,99454.58
2018-04-24T06:55:11.574Z,99459.14
2018-04-24T06:57:39.172Z,99457.62
2018-04-24T07:00:07.743Z,99451.26
2018-04-24T07:02:35.943Z,99456.92
2018-04-24T07:05:04.290Z,99451.64
2018-04-24T07:07:32.267Z,99450.44
2018-04-24T07:09:59.823Z,99455.03
2018-04-24T07:12:27.479Z,99462.80
2018-04-24T07:14:55.920Z,99457.79
2018-04-24T07:17:23.479Z,99457.50
2018-04-24T07:19:51.627Z,99456.20
2018-04-24T07:22:19.265Z,99464.31
2018-04-24T07:24:46.815Z,99462.47
2018-04-24T07:27:15.115Z,99465.52
2018-04-24T07:29:43.374Z,99472.75
2018-04-24T07:32:10.955Z,99464.86
2018-04-24T07:34:39.276Z,99464.84
2018-04-24T07:37:07.779Z,99457.09
2018-04-24T07:39:35.339Z,99449.94
2018-04-24T07:42:02.916Z,99439.36
2018-04-24T07:44:30.483Z,99438.39
2018-04-24T07:46:58.348Z,99443.02
2018-04-24T07:49:26.574Z,99441.61
2018-04-24T07:51:54.179Z,99445.47
2018-04-24T07:54:21.746Z,99444.17
2018-04-24T07:56:49.926Z,99430.77
2018-04-24T07:59:17.542Z,99436.54
2018-04-24T08:01:45.952Z,99435.73
2018-04-24T08:04:13.522Z,99430.88
2018-04-24T08:06:41.756Z,99421.30
2018-04-24T08:09:09.857Z,99424.97
2018-04-24T08:11:37.509Z,99418.75
2018-04-24T08:14:05.584Z,99423.51
2018-04-24T08:16:33.777Z,99418.78
2018-04-24T08:19:01.333Z,99417.66
2018-04-24T08:21:30.879Z,99413.31
2018-04-24T08:23:59.484Z,99410.34
2018-04-24T08:26:27.131Z,99413.35
2018-04-24T08:28:55.338Z,99411.23
2018-04-24T08:31:23.584Z,99411.48
2018-04-24T08:33:51.732Z,99415.76
2018-04-24T08:36:20.072Z,99415.19
2018-04-24T08:38:47.632Z,99411.88
2018-04-24T08:41:15.228Z,99415.91
2018-04-24T08:43:42.831Z,99418.67
2018-04-24T08:46:10.407Z,99416.92
2018-04-24T08:48:38.571Z,99416.45
2018-04-24T08:51:06.215Z,99415.65
2018-04-24T08:53:33.779Z,99405.52
2018-04-24T08:56:01.403Z,99404.86
2018-04-24T08:58:29.131Z,99399.02
2018-04-24T09:00:57.267Z,99408.10
2018-04-24T09:03:24.828Z,99412.02
2018-04-24T09:05:54.383Z,99406.63
2018-04-24T09:08:22.747Z,99396.02
2018-04-24T09:10:50.319Z,99391.09
2018-04-24T09:13:19.379Z,99388.67
2018-04-24T09:15:47.364Z,99386.22
2018-04-24T09:18:14.946Z,99383.44
2018-04-24T09:20:42.528Z,99384.33
2018-04-24T09:23:10.149Z,99383.91
2018-04-24T09:25:37.723Z,99375.39
2018-04-24T09:28:05.311Z,99374.17
2018-04-24T09:30:33.531Z,99371.38
2018-04-24T09:33:02.008Z,99366.13
2018-04-24T09:35:30.915Z,99369.71
2018-04-24T09:37:58.643Z,99367.27
2018-04-24T09:40:26.220Z,99373.67
2018-04-24T09:42:53.816Z,99362.49
2018-04-24T09:45:21.375Z,99361.47
2018-04-24T09:47:49.760Z,99352.95
2018-04-24T09:50:17.354Z,99352.56
2018-04-24T09:52:45.387Z,99349.83
2018-04-24T09:55:12.968Z,99348.03
2018-04-24T09:57:40.523Z,99349.66
2018-04-24T10:00:08.220Z,99352.80
2018-04-24T10:02:36.976Z,99348.48
2018-04-24T10:05:05.048Z,99339.34
2018-04-24T10:07:33.304Z,99341.41
2018-04-24T10:10:00.880Z,99345.17
2018-04-24T10:12:29.323Z,99334.66
2018-04-24T10:14:57.929Z,99326.55
2018-04-24T10:17:25.494Z,99329.08
2018-04-24T10:19:53.273Z,99328.99
2018-04-24T10:22:20.873Z,99330.55
2018-04-24T10:24:48.440Z,99318.88
2018-04-24T10:27:16.133Z,99320.85
2018-04-24T10:29:44.595Z,99322.95
2018-04-24T10:32:12.171Z,99321.66
2018-04-24T10:34:40.638Z,99318.08
2018-04-24T10:37:09.047Z,99322.63
2018-04-24T10:39:36.595Z,99324.38
2018-04-24T10:42:04.171Z,99323.48
2018-04-24T10:44:31.807Z,99330.52
2018-04-24T10:46:59.429Z,99332.66
2018-04-24T10:49:27.993Z,99326.16
2018-04-24T10:51:55.572Z,99328.59
2018-04-24T10:54:23.135Z,99330.19
2018-04-24T10:56:50.736Z,99333.38
2018-04-24T10:59:18.386Z,99330.81
2018-04-24T11:01:46.864Z,99328.80
2018-04-24T11:04:14.435Z,99321.38
2018-04-24T11:06:42.940Z,99317.90
2018-04-24T11:09:11.181Z,99314.99
2018-04-24T11:11:39.511Z,99319.38
2018-04-24T11:14:07.787Z,99310.78
2018-04-24T11:16:35.369Z,99310.84
2018-04-24T11:19:02.964Z,99304.58
2018-04-24T11:21:30.687Z,99301.66
2018-04-24T11:23:58.424Z,99300.81
2018-04-24T11:26:26.012Z,99293.28
2018-04-24T11:28:53.629Z,99290.63
2018-04-24T11:31:21.819Z,99300.60
2018-04-24T11:33:50.055Z,99298.34
2018-04-24T11:36:18.275Z,99289.51
2018-04-24T11:38:46.419Z,99294.89
2018-04-24T11:41:14.038Z,99282.36
2018-04-24T11:43:41.677Z,99281.30
2018-04-24T11:46:09.500Z,99282.17
2018-04-24T11:48:38.862Z,99279.60
2018-04-24T11:51:06.388Z,99282.58
2018-04-24T11:53:33.961Z,99274.92
2018-04-24T11:56:01.615Z,99269.67
2018-04-24T11:58:29.252Z,99273.54
2018-04-24T12:00:58.031Z,99258.42
2018-04-24T12:03:25.601Z,99254.06
2018-04-24T12:05:53.875Z,99257.17
2018-04-24T12:08:21.927Z,99248.86
2018-04-24T12:10:49.505Z,99252.39
2018-04-24T12:13:18.352Z,99245.63
2018-04-24T12:15:45.992Z,99240.91
2018-04-24T12:18:13.531Z,99238.87
2018-04-24T12:20:41.123Z,99235.50
2018-04-24T12:23:08.714Z,99222.67
2018-04-24T12:25:36.303Z,99218.63
2018-04-24T12:28:04.180Z,99223.48
2018-04-24T12:30:32.635Z,99221.34
2018-04-24T12:33:00.203Z,99215.84
2018-04-24T12:35:28.568Z,99212.73
2018-04-24T12:37:56.136Z,99212.07
2018-04-24T12:40:23.697Z,99203.94
2018-04-24T12:42:51.311Z,99203.91
2018-04-24T12:45:18.929Z,99194.54
2018-04-24T12:47:47.097Z,99194.02
2018-04-24T12:50:14.671Z,99190.81
2018-04-24T12:52:42.245Z,99187.75
2018-04-24T12:55:09.932Z,99186.14
2018-04-24T12:57:37.615Z,99188.25
2018-04-24T13:00:05.364Z,99178.41
2018-04-24T13:02:33.875Z,99179.61
2018-04-24T13:05:02.424Z,99172.94
2018-04-24T13:07:30.718Z,99172.84
2018-04-24T13:09:58.455Z,99168.40
2018-04-24T13:12:26.015Z,99160.25
2018-04-24T13:14:54.166Z,99161.42
2018-04-24T13:17:21.810Z,99165.64
2018-04-24T13:19:49.362Z,99158.09
2018-04-24T13:22:16.979Z,99149.25
2018-04-24T13:24:45.199Z,99145.72
2018-04-24T13:27:12.807Z,99142.11
2018-04-24T13:29:41.015Z,99139.20
2018-04-24T13:32:08.617Z,99139.53
2018-04-24T13:34:36.813Z,99127.73
2018-04-24T13:37:05.363Z,99127.27
2018-04-24T13:39:32.901Z,99127.88
2018-04-24T13:42:00.464Z,99118.53
2018-04-24T13:44:28.623Z,99112.53
2018-04-24T13:46:56.711Z,99103.19
2018-04-24T13:49:25.023Z,99096.55
2018-04-24T13:51:53.568Z,99094.87
2018-04-24T13:54:21.152Z,99085.27
2018-04-24T13:56:48.762Z,99085.81
2018-04-24T13:59:16.482Z,99080.10
2018-04-24T14:01:44.576Z,99075.89
2018-04-24T14:04:12.680Z,99073.47
2018-04-24T14:06:40.819Z,99061.83
2018-04-24T14:09:09.252Z,99063.72
2018-04-24T14:11:36.807Z,99051.59
2018-04-24T14:14:05.233Z,99057.44
2018-04-24T14:16:32.795Z,99054.02
2018-04-24T14:19:00.376Z,99052.94
2018-04-24T14:21:28.400Z,99050.23
2018-04-24T14:23:56.675Z,99043.55
2018-04-24T14:26:24.248Z,99034.80
2018-04-24T14:28:51.888Z,99036.89
2018-04-24T14:31:19.891Z,99038.49
2018-04-24T14:33:48.380Z,99032.83
2018-04-24T14:36:16.531Z,99037.98
2018-04-24T14:38:44.115Z,99025.92
2018-04-24T14:41:11.703Z,99024.54
2018-04-24T14:43:39.484Z,99018.53
2018-04-24T14:46:07.052Z,99022.69
2018-04-24T14:48:35.408Z,99017.44
2018-04-24T14:51:02.988Z,99011.50
2018-04-24T14:53:30.540Z,99009.39
2018-04-24T14:55:59.123Z,99012.73
2018-04-24T14:58:26.757Z,99010.69
2018-04-24T15:00:54.915Z,99011.86
2018-04-24T15:03:23.476Z,99010.77
2018-04-24T15:05:51.679Z,99006.33
2018-04-24T15:08:20.596Z,99002.59
2018-04-24T15:10:48.196Z,99001.78
2018-04-24T15:13:16.501Z,99003.72
2018-04-24T15:15:44.749Z,98995.78
2018-04-24T15:18:12.327Z,98989.90
2018-04-24T15:20:39.918Z,98994.03
2018-04-24T15:23:07.536Z,98989.13
2018-04-24T15:25:35.837Z,98993.33
2018-04-24T15:28:03.467Z,98990.14
2018-04-24T15:30:31.761Z,98982.73
2018-04-24T15:32:59.552Z,98994.17
2018-04-24T15:35:29.063Z,98985.61
2018-04-24T15:37:56.636Z,98996.77
2018-04-24T15:40:24.199Z,98994.48
2018-04-24T15:42:51.817Z,98989.41
2018-04-24T15:45:19.372Z,98989.77
2018-04-24T15:47:47.660Z,98985.59
2018-04-24T15:50:15.227Z,98988.20
2018-04-24T15:52:42.861Z,98989.09
2018-04-24T15:55:10.464Z,98987.74
2018-04-24T15:57:38.740Z,98985.88
2018-04-24T16:00:06.327Z,98984.27
2018-04-24T16:02:34.847Z,98976.86
2018-04-24T16:05:03.492Z,98987.13
2018-04-24T16:07:31.685Z,98980.14
2018-04-24T16:09:59.377Z,98987.86
2018-04-24T16:12:27.904Z,98976.66
2018-04-24T16:14:56.679Z,98970.24
2018-04-24T16:17:24.196Z,98971.95
2018-04-24T16:19:51.755Z,98971.33
2018-04-24T16:22:19.377Z,98969.32
2018-04-24T16:24:47.082Z,98974.52
2018-04-24T16:27:14.669Z,98969.16
2018-04-24T16:29:44.025Z,98973.52
2018-04-24T16:32:11.451Z,98971.11
2018-04-24T16:34:39.861Z,98971.70
2018-04-24T16:37:08.379Z,98974.49
2018-04-24T16:39:35.955Z,98969.78
2018-04-24T16:42:03.536Z,98963.38
2018-04-24T16:44:31.144Z,98971.41
2018-04-24T16:46:59.764Z,98967.94
2018-04-24T16:49:28.085Z,98974.86
2018-04-24T16:51:55.661Z,98970.27
2018-04-24T16:54:24.150Z,98975.05
2018-04-24T16:56:52.423Z,98977.34
2018-04-24T16:59:19.990Z,98969.19
2018-04-24T17:01:48.289Z,98972.23
2018-04-24T17:04:15.871Z,98975.84
2018-04-24T17:06:43.821Z,98975.59
2018-04-24T17:09:11.960Z,98974.85
2018-04-24T17:11:39.624Z,98977.53
2018-04-24T17:14:07.999Z,98980.73
2018-04-24T17:16:35.570Z,98979.27
2018-04-24T17:19:03.125Z,98980.95
2018-04-24T17:21:30.735Z,98976.61
2018-04-24T17:23:58.397Z,98974.33
2018-04-24T17:26:25.958Z,98970.50
2018-04-24T17:28:54.379Z,98965.83
2018-04-24T17:31:22.612Z,98969.97
2018-04-24T17:33:50.687Z,98978.34
2018-04-24T17:36:18.933Z,98980.36
2018-04-24T17:38:46.519Z,98987.87
2018-04-24T17:41:14.078Z,98985.38
2018-04-24T17:43:41.801Z,98987.20
2018-04-24T17:46:09.480Z,98990.81
2018-04-24T17:48:37.884Z,98994.56
2018-04-24T17:51:05.574Z,98990.14
2018-04-24T17:53:33.956Z,98987.23
2018-04-24T17:56:01.538Z,98984.09
2018-04-24T17:58:29.144Z,98981.13
2018-04-24T18:00:57.495Z,98988.11
2018-04-24T18:03:25.086Z,98989.62
2018-04-24T18:05:53.303Z,98986.13
2018-04-24T18:08:21.584Z,98987.34
2018-04-24T18:10:49.159Z,98988.28
2018-04-24T18:13:17.200Z,98986.48
2018-04-24T18:15:45.423Z,98991.95
2018-04-24T18:18:13.050Z,98995.67
2018-04-24T18:20:40.668Z,98988.61
2018-04-24T18:23:08.367Z,98992.73
2018-04-24T18:25:35.951Z,98995.21
2018-04-24T18:28:05.366Z,98999.98
2018-04-24T18:30:33.694Z,98999.51
2018-04-24T18:33:01.272Z,99009.10
2018-04-24T18:35:29.605Z,99014.45
2018-04-24T18:37:57.843Z,99015.52
2018-04-24T18:40:25.421Z,99021.42
2018-04-24T18:42:52.999Z,99023.42
2018-04-24T18:45:20.599Z,99019.01
2018-04-24T18:47:48.917Z,99030.57
2018-04-24T18:50:16.504Z,99025.67
2018-04-24T18:52:44.743Z,99028.66
2018-04-24T18:55:12.329Z,99033.02
2018-04-24T18:57:39.917Z,99036.23
2018-04-24T19:00:08.423Z,99044.97
2018-04-24T19:02:36.543Z,99035.09
2018-04-24T19:05:04.881Z,99042.03
2018-04-24T19:07:32.983Z,99040.08
2018-04-24T19:10:00.742Z,99043.50
2018-04-24T19:12:28.572Z,99042.57
2018-04-24T19:14:56.877Z,99046.56
2018-04-24T19:17:24.447Z,99041.59
2018-04-24T19:19:52.008Z,99046.13
2018-04-24T19:22:19.627Z,99045.83
2018-04-24T19:24:52.807Z,99048.32
2018-04-24T19:27:20.634Z,99042.50
2018-04-24T19:29:48.895Z,99052.83
2018-04-24T19:32:22.049Z,99049.23
2018-04-24T19:34:50.731Z,99047.66
2018-04-24T19:37:19.430Z,99046.48
2018-04-24T19:39:52.468Z,99046.03
2018-04-24T19:42:20.084Z,99046.30
2018-04-24T19:44:47.634Z,99047.61
2018-04-24T19:47:15.934Z,99051.69
2018-04-24T19:49:49.847Z,99053.25
2018-04-24T19:52:17.426Z,99054.92
2018-04-24T19:55:01.657Z,99051.96
2018-04-24T19:57:30.193Z,99056.30
2018-04-24T19:59:59.746Z,99053.08
2018-04-24T20:02:28.102Z,99052.86
2018-04-24T20:04:56.712Z,99054.34
2018-04-24T20:07:25.072Z,99056.61
2018-04-24T20:09:52.640Z,99061.46
2018-04-24T20:12:20.212Z,99065.98
2018-04-24T20:14:48.501Z,99062.31
2018-04-24T20:17:16.197Z,99063.46
2018-04-24T20:19:44.516Z,99060.72
2018-04-24T20:22:12.244Z,99072.32
2018-04-24T20:24:40.458Z,99071.73
2018-04-24T20:27:08.091Z,99070.02
2018-04-24T20:29:36.607Z,99066.94
2018-04-24T20:32:04.184Z,99077.88
2018-04-24T20:34:32.465Z,99072.61
2018-04-24T20:37:00.609Z,99079.47
2018-04-24T20:39:28.387Z,99090.04
2018-04-24T20:41:55.956Z,99087.78
2018-04-24T20:44:23.568Z,99087.19
2018-04-24T20:46:51.769Z,99096.34
2018-04-24T20:49:19.902Z,99088.63
2018-04-24T20:51:47.927Z,99098.70
2018-04-24T20:54:15.508Z,99090.81
2018-04-24T20:56:43.063Z,99091.06
2018-04-24T20:59:11.163Z,99092.81
2018-04-24T21:01:39.543Z,99092.21
2018-04-24T21:04:07.151Z,99091.21
2018-04-24T21:06:35.180Z,99092.63
2018-04-24T21:09:03.246Z,99099.52
2018-04-24T21:11:30.812Z,99102.41
2018-04-24T21:13:59.087Z,99102.70
2018-04-24T21:16:27.624Z,99101.44
2018-04-24T21:18:55.295Z,99107.38
2018-04-24T21:21:22.870Z,99110.72
2018-04-24T21:23:50.455Z,99113.87
2018-04-24T21:26:18.019Z,99108.94
2018-04-24T21:28:45.779Z,99103.60
2018-04-24T21:31:13.848Z,99107.20
2018-04-24T21:33:42.169Z,99103.67
2018-04-24T21:36:10.331Z,99104.27
2018-04-24T21:38:38.078Z,99106.02
2018-04-24T21:41:05.691Z,99107.76
2018-04-24T21:43:34.219Z,99115.36
2018-04-24T21:46:01.784Z,99106.53
2018-04-24T21:48:30.035Z,99126.14
2018-04-24T21:50:57.626Z,99115.36
2018-04-24T21:53:25.292Z,99118.09
2018-04-24T21:55:52.896Z,99121.73
2018-04-24T21:58:20.987Z,99121.88
2018-04-24T22:00:48.559Z,99125.74
2018-04-24T22:03:17.648Z,99127.16
2018-04-24T22:05:45.664Z,99132.67
2018-04-24T22:08:14.015Z,99130.13
2018-04-24T22:10:41.630Z,99127.56
2018-04-24T22:13:10.103Z,99137.75
2018-04-24T22:15:38.419Z,99125.93
2018-04-24T22:18:05.983Z,99135.38
2018-04-24T22:20:33.552Z,99134.81
2018-04-24T22:23:01.163Z,99141.94
2018-04-24T22:25:28.771Z,99130.25
2018-04-24T22:27:56.485Z,99125.95
2018-04-24T22:30:24.636Z,99133.74
2018-04-24T22:32:52.280Z,99134.07
2018-04-24T22:35:20.523Z,99140.37
2018-04-24T22:37:48.823Z,99132.13
2018-04-24T22:40:16.383Z,99137.69
2018-04-24T22:42:44.760Z,99136.76
2018-04-24T22:45:12.319Z,99133.09
2018-04-24T22:47:40.754Z,99133.80
2018-04-24T22:50:08.476Z,99134.20
2018-04-24T22:52:36.052Z,99138.13
2018-04-24T22:55:03.670Z,99136.60
2018-04-24T22:57:31.756Z,99141.13
2018-04-24T23:00:00.115Z,99137.75
2018-04-24T23:02:28.833Z,99142.34
2018-04-24T23:04:56.970Z,99152.61
2018-04-24T23:07:25.271Z,99145.94
2018-04-24T23:09:54.263Z,99154.27
2018-04-24T23:12:33.595Z,99147.88
2018-04-24T23:15:14.484Z,99149.66
2018-04-24T23:17:53.885Z,99149.80
2018-04-24T23:20:20.949Z,99143.45
2018-04-24T23:22:48.732Z,99143.05
2018-04-24T23:25:16.391Z,99146.23
2018-04-24T23:27:44.025Z,99146.75
2018-04-24T23:30:12.490Z,99135.10
2018-04-24T23:32:40.062Z,99134.62
2018-04-24T23:35:08.163Z,99133.23
2018-04-24T23:37:36.475Z,99129.64
2018-04-24T23:40:04.744Z,99127.00
2018-04-24T23:42:32.355Z,99116.87
2018-04-24T23:45:00.476Z,99119.52
2018-04-24T23:47:28.968Z,99116.06
2018-04-24T23:49:56.552Z,99121.02
2018-04-24T23:52:24.843Z,99120.66
2018-04-24T23:54:52.532Z,99122.21
2018-04-24T23:57:21.020Z,99118.21
2018-04-24T23:59:48.580Z,99108.58
